Terminal Aerodrome Forecast
Issued by NWS Pocatello, ID

Home | Current Version | Previous Version | Text Only | Print | Product List | Glossary On
Versions: 1 2 3 4 5 6 7 8 9 10 11 12 13 14 15 16 17 18 19 20 21 22 23 24 25 26 27 28 29 30 31 32
000
FTUS45 KPIH 100107 CCB
TAFPIH
TAF COR
KPIH 100107Z 1001/1024 VRB05KT 6SM -RA BR OVC025
      TEMPO 1001/1003 4SM -RA BR OVC015
     FM100900 18015KT 6SM -RA BR BKN008 OVC015
     FM101400 19008KT 4SM -RA BR OVC008
     FM101800 20008KT 2SM -RA BR OVC004=

USA.gov is the U.S. government's official web portal to all federal, state and local government web resources and services.